Terminal Aerodrome Forecast
Issued by NWS

Home | Current Version | Previous Version | Text Only | Print | Product List | Glossary On
Versions: 1 2 3 4 5 6 7 8 9 10 11 12 13 14 15 16 17 18 19 20 21 22 23 24 25 26 27 28 29 30 31 32 33 34 35 36 37 38
902
FTUS45 KBOU 110539
TAFAPA
TAF
KAPA 110539Z 1106/1206 VRB05KT P6SM FEW220
     FM110800 17007KT P6SM SCT220
     FM111700 24006KT P6SM FEW120 SCT220
     FM112000 34008KT P6SM SCT120 BKN200
     FM112300 03006KT P6SM SCT130 BKN220
     FM120400 18007KT P6SM FEW140 SCT220=

USA.gov is the U.S. government's official web portal to all federal, state and local government web resources and services.